Time,TemperatureF,DewpointF,PressureIn,WindDirection,WindDirectionDegrees,WindSpeedMPH,WindSpeedGustMPH,Humidity,HourlyPrecipIn,Conditions,Clouds,dailyrainin,SoftwareType,DateUTC
2013-03-17 00:00:00,56.6,50.8,29.80,West,280,0.0,0.0,81,0.00,RA,,0.00,WeatherDisplay:10.37,2013-03-17 04:00:00,
2013-03-17 00:15:00,56.0,50.6,29.81,West,280,0.0,0.0,82,0.00,SCT,,0.00,WeatherDisplay:10.37,2013-03-17 04:15:00,
2013-03-17 00:30:00,55.9,50.5,29.80,West,280,0.0,0.0,82,0.00,SCT,,0.00,WeatherDisplay:10.37,2013-03-17 04:30:00,
2013-03-17 00:45:00,55.1,49.7,29.81,West,280,0.0,1.0,82,0.00,SCT,,0.00,WeatherDisplay:10.37,2013-03-17 04:45:00,
2013-03-17 01:00:00,54.7,49.7,29.81,West,280,0.0,0.0,83,0.00,SCT,,0.00,WeatherDisplay:10.37,2013-03-17 05:00:00,
2013-03-17 01:15:00,54.4,49.7,29.81,WNW,283,1.0,4.0,84,0.00,SCT,,0.00,WeatherDisplay:10.37,2013-03-17 05:15:00,
2013-03-17 01:30:00,55.6,49.9,29.82,WNW,284,0.0,9.0,81,0.00,SCT,,0.00,WeatherDisplay:10.37,2013-03-17 05:30:00,
2013-03-17 01:45:00,54.7,49.3,29.82,WNW,284,0.0,0.0,82,0.00,SCT,,0.00,WeatherDisplay:10.37,2013-03-17 05:45:00,
2013-03-17 02:00:00,54.1,49.4,29.82,WNW,284,0.0,0.0,84,0.00,SCT,,0.00,WeatherDisplay:10.37,2013-03-17 06:00:00,
2013-03-17 02:15:00,53.3,48.9,29.83,WNW,284,0.0,0.0,85,0.00,SCT,,0.00,WeatherDisplay:10.37,2013-03-17 06:15:00,
2013-03-17 02:30:00,52.8,48.7,29.83,WNW,284,0.0,0.0,86,0.00,SCT,,0.00,WeatherDisplay:10.37,2013-03-17 06:30:00,
2013-03-17 02:45:00,52.3,48.5,29.83,WNW,284,0.0,0.0,87,0.00,SCT,,0.00,WeatherDisplay:10.37,2013-03-17 06:45:00,
2013-03-17 03:00:00,52.1,48.3,29.83,WNW,284,0.0,0.0,87,0.00,SCT,,0.00,WeatherDisplay:10.37,2013-03-17 07:00:00,
2013-03-17 03:15:00,51.4,48.0,29.83,WNW,284,0.0,0.0,88,0.00,SCT,,0.00,WeatherDisplay:10.37,2013-03-17 07:15:00,
2013-03-17 03:30:00,51.1,48.0,29.84,WNW,284,0.0,0.0,89,0.00,SCT,,0.00,WeatherDisplay:10.37,2013-03-17 07:30:00,
2013-03-17 03:45:00,51.0,47.9,29.83,WNW,284,0.0,0.0,89,0.00,SCT,,0.00,WeatherDisplay:10.37,2013-03-17 07:45:00,
2013-03-17 04:00:00,50.7,47.5,29.83,WNW,284,0.0,0.0,89,0.00,SCT,,0.00,WeatherDisplay:10.37,2013-03-17 08:00:00,
2013-03-17 04:15:00,50.7,47.6,29.83,WNW,284,0.0,0.0,89,0.00,SCT,,0.00,WeatherDisplay:10.37,2013-03-17 08:15:00,
2013-03-17 04:30:00,50.2,47.1,29.83,WNW,284,0.0,0.0,89,0.00,SCT,,0.00,WeatherDisplay:10.37,2013-03-17 08:30:00,
2013-03-17 04:45:00,49.9,47.1,29.83,WNW,284,0.0,0.0,90,0.00,SCT,,0.00,WeatherDisplay:10.37,2013-03-17 08:45:00,
2013-03-17 05:00:00,50.1,47.3,29.84,WNW,284,0.0,0.0,90,0.00,SCT,,0.00,WeatherDisplay:10.37,2013-03-17 09:00:00,
2013-03-17 05:15:00,50.4,47.6,29.84,WNW,284,0.0,0.0,90,0.00,SCT,,0.00,WeatherDisplay:10.37,2013-03-17 09:15:00,
2013-03-17 05:30:00,50.4,47.6,29.84,WNW,284,0.0,0.0,90,0.00,SCT,,0.00,WeatherDisplay:10.37,2013-03-17 09:30:00,
2013-03-17 05:45:00,50.5,47.7,29.85,WNW,284,0.0,0.0,90,0.00,SCT,,0.00,WeatherDisplay:10.37,2013-03-17 09:45:00,
2013-03-17 06:00:00,50.5,47.4,29.86,WNW,284,0.0,0.0,89,0.00,SCT,,0.00,WeatherDisplay:10.37,2013-03-17 10:00:00,
2013-03-17 06:15:00,50.5,47.4,29.86,WNW,284,0.0,0.0,89,0.00,SCT,,0.00,WeatherDisplay:10.37,2013-03-17 10:15:00,
2013-03-17 06:30:00,50.4,47.3,29.86,WNW,284,0.0,0.0,89,0.00,SCT,,0.00,WeatherDisplay:10.37,2013-03-17 10:30:00,
2013-03-17 06:45:00,50.7,47.9,29.87,WNW,284,0.0,0.0,90,0.00,SCT,,0.00,WeatherDisplay:10.37,2013-03-17 10:45:00,
2013-03-17 07:00:00,51.0,48.2,29.88,WNW,284,0.0,0.0,90,0.00,SCT,,0.00,WeatherDisplay:10.37,2013-03-17 11:00:00,
2013-03-17 07:15:00,52.2,49.1,29.88,WNW,284,0.0,2.0,89,0.00,SCT,,0.00,WeatherDisplay:10.37,2013-03-17 11:15:00,
2013-03-17 07:30:00,54.1,50.0,29.87,ENE,75,1.0,4.0,86,0.00,SCT,,0.00,WeatherDisplay:10.37,2013-03-17 11:30:00,
2013-03-17 07:45:00,54.7,49.3,29.88,East,85,1.0,4.0,82,0.00,SCT,,0.00,WeatherDisplay:10.37,2013-03-17 11:45:00,
2013-03-17 08:00:00,54.5,49.1,29.89,East,85,0.0,3.0,82,0.00,SCT,,0.00,WeatherDisplay:10.37,2013-03-17 12:00:00,
2013-03-17 08:15:00,54.1,49.1,29.90,East,85,0.0,2.0,83,0.00,SCT,,0.00,WeatherDisplay:10.37,2013-03-17 12:15:00,
2013-03-17 08:30:00,53.6,49.2,29.90,East,100,0.0,3.0,85,0.00,SCT,,0.00,WeatherDisplay:10.37,2013-03-17 12:30:00,
2013-03-17 08:45:00,53.0,49.2,29.93,NNW,331,0.0,3.0,87,0.00,SCT,,0.00,WeatherDisplay:10.37,2013-03-17 12:45:00,
2013-03-17 09:00:00,52.6,49.4,29.94,NNE,16,0.0,4.0,89,0.00,SCT,,0.00,WeatherDisplay:10.37,2013-03-17 13:00:00,
2013-03-17 09:15:00,52.5,49.7,29.95,NNE,18,0.0,6.0,90,0.00,SCT,,0.00,WeatherDisplay:10.37,2013-03-17 13:15:00,
2013-03-17 09:30:00,52.3,49.5,29.95,NNE,25,0.0,3.0,90,0.00,SCT,,0.00,WeatherDisplay:10.37,2013-03-17 13:30:00,
2013-03-17 09:45:00,52.3,49.8,29.95,NE,35,1.0,3.0,91,0.00,SCT,,0.00,WeatherDisplay:10.37,2013-03-17 13:45:00,
2013-03-17 10:00:00,51.6,49.1,29.95,East,89,2.0,6.0,91,0.00,SCT,,0.00,WeatherDisplay:10.37,2013-03-17 14:00:00,
2013-03-17 10:15:00,50.8,47.6,29.96,ENE,78,1.0,4.0,89,0.00,SCT,,0.00,WeatherDisplay:10.37,2013-03-17 14:15:00,
2013-03-17 10:30:00,51.0,46.6,29.98,ENE,63,1.0,3.0,85,0.00,SCT,,0.00,WeatherDisplay:10.37,2013-03-17 14:30:00,
2013-03-17 10:45:00,50.5,45.2,29.99,NE,43,1.0,5.0,82,0.00,SCT,,0.00,WeatherDisplay:10.37,2013-03-17 14:45:00,
2013-03-17 11:00:00,50.5,44.2,29.99,NE,56,2.0,5.0,79,0.00,SCT,,0.00,WeatherDisplay:10.37,2013-03-17 15:00:00,
2013-03-17 11:15:00,51.0,44.0,29.99,East,86,2.0,4.0,77,0.00,SCT,,0.00,WeatherDisplay:10.37,2013-03-17 15:15:00,
2013-03-17 11:30:00,50.7,43.8,30.00,East,97,1.0,7.0,77,0.00,SCT,,0.00,WeatherDisplay:10.37,2013-03-17 15:30:00,
2013-03-17 11:45:00,50.5,43.6,30.00,North,10,0.0,5.0,77,0.00,SCT,,0.00,WeatherDisplay:10.37,2013-03-17 15:45:00,
2013-03-17 12:00:00,50.0,43.1,30.01,NNE,27,2.0,5.0,77,0.00,SCT,,0.00,WeatherDisplay:10.37,2013-03-17 16:00:00,
2013-03-17 12:15:00,49.9,43.0,30.01,ENE,62,0.0,4.0,77,0.00,SCT,,0.00,WeatherDisplay:10.37,2013-03-17 16:15:00,
2013-03-17 12:30:00,49.9,43.3,30.01,East,83,0.0,6.0,78,0.00,SCT,,0.00,WeatherDisplay:10.37,2013-03-17 16:30:00,
2013-03-17 12:45:00,50.1,43.2,30.01,ENE,71,1.0,4.0,77,0.00,SCT,,0.00,WeatherDisplay:10.37,2013-03-17 16:45:00,
2013-03-17 13:00:00,50.6,43.0,30.01,NE,53,1.0,4.0,75,0.00,SCT,,0.00,WeatherDisplay:10.37,2013-03-17 17:00:00,
2013-03-17 13:15:00,51.1,42.4,30.01,ESE,123,1.0,6.0,72,0.00,SCT,,0.00,WeatherDisplay:10.37,2013-03-17 17:15:00,
2013-03-17 13:30:00,51.6,42.1,30.01,ENE,58,1.0,6.0,70,0.00,SCT,,0.00,WeatherDisplay:10.37,2013-03-17 17:30:00,
2013-03-17 13:45:00,52.1,42.3,30.01,NE,35,1.0,4.0,69,0.00,SCT,,0.00,WeatherDisplay:10.37,2013-03-17 17:45:00,
2013-03-17 14:00:00,52.0,41.8,30.00,ENE,70,1.0,7.0,68,0.00,SCT,,0.00,WeatherDisplay:10.37,2013-03-17 18:00:00,
2013-03-17 14:15:00,51.9,40.9,30.00,NNE,32,1.0,7.0,66,0.00,SCT,,0.00,WeatherDisplay:10.37,2013-03-17 18:15:00,
2013-03-17 14:30:00,51.3,40.3,30.00,ENE,66,1.0,5.0,66,0.00,SCT,,0.00,WeatherDisplay:10.37,2013-03-17 18:30:00,
2013-03-17 14:45:00,51.3,40.3,30.00,NE,52,1.0,4.0,66,0.00,SCT,,0.00,WeatherDisplay:10.37,2013-03-17 18:45:00,
2013-03-17 15:00:00,51.2,39.9,30.00,ENE,60,0.0,3.0,65,0.00,SCT,,0.00,WeatherDisplay:10.37,2013-03-17 19:00:00,
2013-03-17 15:15:00,50.8,39.8,29.99,ENE,73,0.0,4.0,66,0.00,SCT,,0.00,WeatherDisplay:10.37,2013-03-17 19:15:00,
2013-03-17 15:30:00,50.2,39.3,29.98,NE,34,2.0,4.0,66,0.00,SCT,,0.00,WeatherDisplay:10.37,2013-03-17 19:30:00,
2013-03-17 15:45:00,50.7,39.4,29.98,NE,40,1.0,4.0,65,0.00,SCT,,0.00,WeatherDisplay:10.37,2013-03-17 19:45:00,
2013-03-17 16:00:00,49.9,38.6,29.99,ENE,73,2.0,6.0,65,0.00,SCT,,0.00,WeatherDisplay:10.37,2013-03-17 20:00:00,
2013-03-17 16:15:00,49.4,38.9,30.00,NNE,18,1.0,5.0,67,0.00,SCT,,0.00,WeatherDisplay:10.37,2013-03-17 20:15:00,
2013-03-17 16:30:00,48.6,38.5,30.00,NE,50,1.0,5.0,68,0.00,SCT,,0.00,WeatherDisplay:10.37,2013-03-17 20:30:00,
2013-03-17 16:45:00,48.5,38.8,30.00,NE,39,0.0,5.0,69,0.00,SCT,,0.00,WeatherDisplay:10.37,2013-03-17 20:45:00,
2013-03-17 17:00:00,48.2,38.5,30.00,ENE,78,1.0,7.0,69,0.00,SCT,,0.00,WeatherDisplay:10.37,2013-03-17 21:00:00,
2013-03-17 17:15:00,48.1,38.0,30.00,NE,52,2.0,6.0,68,0.00,SCT,,0.00,WeatherDisplay:10.37,2013-03-17 21:15:00,
2013-03-17 17:30:00,47.1,37.8,30.01,ENE,63,1.0,6.0,70,0.00,SCT,,0.00,WeatherDisplay:10.37,2013-03-17 21:30:00,
2013-03-17 17:45:00,46.4,37.5,30.02,ENE,66,1.0,5.0,71,0.00,SCT,,0.00,WeatherDisplay:10.37,2013-03-17 21:45:00,
2013-03-17 18:00:00,46.1,37.6,30.02,ENE,70,1.0,5.0,72,0.00,SCT,,0.00,WeatherDisplay:10.37,2013-03-17 22:00:00,
2013-03-17 18:15:00,45.6,37.5,30.02,NE,51,1.0,10.0,73,0.00,SCT,,0.00,WeatherDisplay:10.37,2013-03-17 22:15:00,
2013-03-17 18:30:00,44.9,37.5,30.03,ENE,63,1.0,9.0,75,0.00,SCT,,0.00,WeatherDisplay:10.37,2013-03-17 22:30:00,
2013-03-17 18:45:00,44.3,37.2,30.04,ENE,74,1.0,7.0,76,0.00,SCT,,0.00,WeatherDisplay:10.37,2013-03-17 22:45:00,
2013-03-17 19:00:00,44.1,37.3,30.04,NE,49,1.0,6.0,77,0.00,SCT,,0.00,WeatherDisplay:10.37,2013-03-17 23:00:00,
2013-03-17 19:15:00,43.5,37.1,30.03,East,82,2.0,5.0,78,0.00,SCT,,0.00,WeatherDisplay:10.37,2013-03-17 23:15:00,
2013-03-17 19:30:00,43.1,37.0,30.05,NE,54,1.0,6.0,79,0.00,SCT,,0.00,WeatherDisplay:10.37,2013-03-17 23:30:00,
2013-03-17 19:45:00,42.9,36.8,30.06,ENE,70,1.0,5.0,79,0.00,SCT,,0.00,WeatherDisplay:10.37,2013-03-17 23:45:00,
2013-03-17 20:00:00,42.5,36.4,30.06,ENE,63,0.0,6.0,79,0.00,SCT,,0.00,WeatherDisplay:10.37,2013-03-18 00:00:00,
2013-03-17 20:15:00,42.2,36.5,30.07,NE,53,1.0,5.0,80,0.00,SCT,,0.00,WeatherDisplay:10.37,2013-03-18 00:15:00,
2013-03-17 20:30:00,41.9,36.5,30.07,NE,54,1.0,7.0,81,0.00,SCT,,0.00,WeatherDisplay:10.37,2013-03-18 00:30:00,
2013-03-17 20:45:00,41.8,36.7,30.08,ENE,64,1.0,5.0,82,0.00,SCT,,0.00,WeatherDisplay:10.37,2013-03-18 00:45:00,
2013-03-17 21:00:00,41.5,36.7,30.10,East,90,0.0,5.0,83,0.00,SCT,,0.00,WeatherDisplay:10.37,2013-03-18 01:00:00,
2013-03-17 21:15:00,41.2,36.4,30.12,ENE,77,1.0,5.0,83,0.00,SCT,,0.00,WeatherDisplay:10.37,2013-03-18 01:15:00,
2013-03-17 21:30:00,40.9,36.4,30.12,ENE,75,0.0,3.0,84,0.00,SCT,,0.00,WeatherDisplay:10.37,2013-03-18 01:30:00,
2013-03-17 21:45:00,40.8,36.6,30.12,ENE,62,1.0,5.0,85,0.00,SCT,,0.00,WeatherDisplay:10.37,2013-03-18 01:45:00,
2013-03-17 22:00:00,40.8,36.9,30.12,ESE,122,0.0,3.0,86,0.00,SCT,,0.00,WeatherDisplay:10.37,2013-03-18 02:00:00,
2013-03-17 22:15:00,40.6,36.4,30.12,ENE,70,1.0,5.0,85,0.00,SCT,,0.00,WeatherDisplay:10.37,2013-03-18 02:15:00,
2013-03-17 22:30:00,40.7,36.8,30.12,ENE,70,0.0,5.0,86,0.00,SCT,,0.00,WeatherDisplay:10.37,2013-03-18 02:30:00,
2013-03-17 22:45:00,40.2,36.4,30.13,ENE,69,1.0,4.0,86,0.00,SCT,,0.00,WeatherDisplay:10.37,2013-03-18 02:45:00,
2013-03-17 23:00:00,39.9,36.3,30.14,ENE,67,0.0,4.0,87,0.00,SCT,,0.00,WeatherDisplay:10.37,2013-03-18 03:00:00,
2013-03-17 23:15:00,39.6,36.3,30.14,East,91,1.0,5.0,88,0.00,SCT,,0.00,WeatherDisplay:10.37,2013-03-18 03:15:00,
2013-03-17 23:30:00,39.3,36.0,30.14,East,90,1.0,7.0,88,0.00,SCT,,0.00,WeatherDisplay:10.37,2013-03-18 03:30:00,
2013-03-17 23:45:00,39.2,36.2,30.14,East,81,0.0,5.0,89,0.00,SCT,,0.00,WeatherDisplay:10.37,2013-03-18 03:45:00,